Time;durP1;ratioP1;P1;durP2;ratioP2;P2;SDS_P1;SDS_P2;PMS_P1;PMS_P2;Temp;Humidity;BMP_temperature;BMP_pressure;BME280_temperature;BME280_humidity;BME280_pressure;Samples;Min_cycle;Max_cycle;Signal;HPM_P1;HPM_P2
2020/12/19 00:01:31;;;;;;;14.90;7.00;;;;;;;2.05;63.16;99945.41;10499101;28;20053;-54
2020/12/19 00:06:32;;;;;;;16.55;6.68;;;;;;;1.95;63.08;99946.75;10498471;28;20052;-57
2020/12/19 00:11:34;;;;;;;14.82;6.35;;;;;;;1.82;63.63;99956.84;10499658;28;20045;-53
2020/12/19 00:16:36;;;;;;;15.55;6.95;;;;;;;1.61;63.45;99938.75;10498545;28;20044;-54
2020/12/19 00:21:38;;;;;;;14.95;6.88;;;;;;;1.60;64.47;99938.78;10496602;28;20401;-55
2020/12/19 00:26:42;;;;;;;16.83;6.97;;;;;;;1.65;64.21;99936.84;10500489;28;20048;-58
2020/12/19 00:31:44;;;;;;;15.13;7.00;;;;;;;1.63;63.77;99935.22;10516480;28;20055;-54
2020/12/19 00:36:46;;;;;;;14.63;7.47;;;;;;;1.58;64.47;99932.84;10534155;28;20062;-53
2020/12/19 00:41:47;;;;;;;16.40;7.28;;;;;;;1.60;64.21;99929.28;10504553;28;20377;-52
2020/12/19 00:46:51;;;;;;;18.45;6.80;;;;;;;1.60;64.05;99933.63;10505366;28;20135;-56
2020/12/19 00:51:53;;;;;;;;;;;;;;;1.64;63.93;99932.59;10504468;28;20081;-54
2020/12/19 00:56:54;;;;;;;15.27;6.57;;;;;;;1.61;64.13;99924.94;10504864;28;19924;-54
2020/12/19 01:01:57;;;;;;;19.58;7.70;;;;;;;1.59;63.97;99930.19;10504118;28;20114;-54
2020/12/19 01:06:59;;;;;;;16.73;7.10;;;;;;;1.59;64.37;99931.94;10504233;28;20120;-53
2020/12/19 01:12:00;;;;;;;15.38;6.40;;;;;;;1.65;64.43;99942.03;10505287;28;20053;-53
2020/12/19 01:17:05;;;;;;;16.38;6.35;;;;;;;1.62;64.37;99929.22;10504413;28;20056;-53
2020/12/19 01:22:07;;;;;;;11.95;6.03;;;;;;;1.50;64.07;99922.81;10506149;28;20079;-53
2020/12/19 01:27:09;;;;;;;14.80;7.13;;;;;;;1.45;64.54;99929.09;10505573;28;20055;-53
2020/12/19 01:32:13;;;;;;;14.32;5.97;;;;;;;1.33;64.74;99926.16;10526685;28;20040;-54
2020/12/19 01:37:16;;;;;;;;;;;;;;;1.24;65.13;99933.50;10533977;28;20118;-53
2020/12/19 01:42:17;;;;;;;15.90;6.32;;;;;;;1.12;65.00;99924.50;10503430;28;19935;-54
2020/12/19 01:47:22;;;;;;;14.25;6.07;;;;;;;1.03;65.01;99924.91;10504160;28;20048;-53
2020/12/19 01:52:26;;;;;;;12.63;4.57;;;;;;;0.89;65.57;99933.22;10503863;28;20140;-59
2020/12/19 01:57:32;;;;;;;19.63;7.53;;;;;;;0.76;65.54;99929.47;10504370;28;20056;-55
2020/12/19 02:02:34;;;;;;;6.20;2.88;;;;;;;0.72;66.06;99941.69;10503119;28;20062;-55
2020/12/19 02:07:36;;;;;;;12.57;6.32;;;;;;;0.64;65.91;99931.66;10502307;28;20489;-53
2020/12/19 02:12:38;;;;;;;8.35;3.15;;;;;;;0.61;66.22;99928.34;10502017;28;20053;-53
2020/12/19 02:17:41;;;;;;;16.17;7.05;;;;;;;0.52;66.52;99902.84;10501143;28;20392;-54
2020/12/19 02:22:43;;;;;;;12.45;6.57;;;;;;;0.56;66.24;99910.44;10503796;28;20048;-54
2020/12/19 02:27:45;;;;;;;8.32;4.30;;;;;;;0.54;66.03;99907.06;10502359;28;20052;-53
2020/12/19 02:32:47;;;;;;;16.40;6.72;;;;;;;0.58;66.46;99923.28;10528717;28;20066;-54
2020/12/19 02:37:48;;;;;;;17.73;7.72;;;;;;;0.68;66.21;99916.88;10501449;28;20194;-54
2020/12/19 02:42:51;;;;;;;20.55;9.27;;;;;;;0.67;65.57;99905.66;10500781;28;20052;-55
2020/12/19 02:47:53;;;;;;;16.80;8.73;;;;;;;0.76;66.11;99922.53;10501259;28;20048;-53
2020/12/19 02:52:54;;;;;;;18.15;6.90;;;;;;;0.75;65.80;99907.09;10499862;28;20044;-54
2020/12/19 02:57:57;;;;;;;19.67;9.00;;;;;;;0.75;65.68;99907.09;10500743;28;20098;-54
2020/12/19 03:02:58;;;;;;;21.65;7.97;;;;;;;0.79;65.47;99909.47;10499857;28;20546;-53
2020/12/19 03:08:00;;;;;;;16.05;8.23;;;;;;;0.96;65.43;99918.31;10499902;28;20060;-54
2020/12/19 03:13:02;;;;;;;16.77;8.10;;;;;;;0.98;65.30;99916.47;10500181;28;20106;-56
2020/12/19 03:18:04;;;;;;;18.67;8.60;;;;;;;0.99;65.55;99905.22;10499727;28;20059;-55
2020/12/19 03:23:05;;;;;;;15.43;7.75;;;;;;;1.10;65.19;99901.25;10501486;28;20048;-54
2020/12/19 03:28:08;;;;;;;18.20;7.70;;;;;;;1.13;65.21;99895.94;10502255;28;20048;-55
2020/12/19 03:33:10;;;;;;;19.45;8.45;;;;;;;1.18;65.06;99888.00;10499590;28;20515;-56
2020/12/19 03:38:11;;;;;;;16.13;7.00;;;;;;;1.19;65.04;99904.34;10499212;28;20052;-54
2020/12/19 03:43:14;;;;;;;19.00;8.48;;;;;;;1.15;65.45;99898.47;10498780;28;20049;-55
2020/12/19 03:48:16;;;;;;;17.70;7.07;;;;;;;1.13;65.26;99895.09;10498916;28;20048;-56
2020/12/19 03:53:17;;;;;;;16.55;7.05;;;;;;;1.18;65.32;99898.34;10498371;28;20396;-53
2020/12/19 03:58:20;;;;;;;20.05;9.27;;;;;;;1.10;65.26;99890.06;10500979;28;20067;-53
2020/12/19 04:03:21;;;;;;;16.38;7.75;;;;;;;1.07;65.85;99891.03;10498452;28;20475;-55
2020/12/19 04:08:23;;;;;;;11.77;4.93;;;;;;;1.08;65.34;99903.09;10498341;28;20389;-55
2020/12/19 04:13:26;;;;;;;18.27;6.97;;;;;;;0.96;65.51;99882.06;10497700;28;20370;-54
2020/12/19 04:18:27;;;;;;;16.23;6.88;;;;;;;1.02;65.45;99881.81;10498221;28;20052;-53
2020/12/19 04:23:29;;;;;;;17.95;8.25;;;;;;;0.96;65.16;99879.47;10498563;28;20056;-55
2020/12/19 04:28:31;;;;;;;18.55;7.25;;;;;;;0.91;65.17;99884.84;10498886;28;20056;-53
2020/12/19 04:33:33;;;;;;;19.17;9.55;;;;;;;0.94;65.59;99879.53;10498958;28;20045;-55
2020/12/19 04:38:34;;;;;;;11.52;5.32;;;;;;;0.95;65.28;99886.38;10497311;28;20044;-53
2020/12/19 04:43:37;;;;;;;18.58;8.15;;;;;;;0.91;65.44;99888.25;10496766;28;20049;-53
2020/12/19 04:48:39;;;;;;;10.00;3.75;;;;;;;0.99;65.21;99898.31;10497721;28;20097;-54
2020/12/19 04:53:41;;;;;;;18.25;8.70;;;;;;;1.08;65.22;99881.53;10497650;28;20044;-55
2020/12/19 04:58:44;;;;;;;20.17;8.85;;;;;;;1.21;64.78;99890.44;10497307;28;20401;-55
2020/12/19 05:03:48;;;;;;;20.90;8.73;;;;;;;1.32;64.49;99883.03;10497296;28;20378;-54
2020/12/19 05:08:49;;;;;;;;;;;;;;;1.20;64.40;99885.31;10496186;28;20393;-55
2020/12/19 05:13:52;;;;;;;18.58;8.07;;;;;;;1.21;64.79;99881.84;10458356;28;19939;-55
2020/12/19 05:18:54;;;;;;;13.38;6.55;;;;;;;1.33;64.65;99899.44;10455306;28;20041;-54
2020/12/19 05:23:56;;;;;;;20.70;9.55;;;;;;;1.32;65.07;99893.38;10462949;28;20470;-55
2020/12/19 05:28:59;;;;;;;15.15;7.20;;;;;;;1.46;64.32;99897.13;10463496;28;20398;-55
2020/12/19 05:34:02;;;;;;;17.73;7.70;;;;;;;1.35;65.01;99906.19;10536412;28;20480;-54
2020/12/19 05:39:05;;;;;;;17.67;8.52;;;;;;;1.20;65.08;99891.34;10486519;28;20044;-53
2020/12/19 05:44:07;;;;;;;19.23;8.93;;;;;;;1.15;65.65;99898.47;10504336;28;20049;-53
2020/12/19 05:49:11;;;;;;;13.13;7.00;;;;;;;1.19;65.76;99901.78;10505255;28;20053;-56
2020/12/19 05:54:13;;;;;;;;;;;;;;;1.21;65.96;99903.38;10477701;28;20057;-54
2020/12/19 05:59:17;;;;;;;18.95;8.13;;;;;;;1.20;65.50;99906.91;10463064;28;19935;-55
2020/12/19 06:04:18;;;;;;;23.13;8.95;;;;;;;1.21;65.81;99912.91;10461564;28;20096;-53
2020/12/19 06:09:20;;;;;;;15.73;7.55;;;;;;;1.24;65.89;99911.03;10460763;28;20048;-53
2020/12/19 06:14:24;;;;;;;19.38;9.80;;;;;;;1.21;65.79;99910.31;10460011;28;20071;-54
2020/12/19 06:19:31;;;;;;;20.77;10.40;;;;;;;1.21;66.26;99912.91;10460941;28;20099;-53
2020/12/19 06:24:39;;;;;;;16.92;8.35;;;;;;;1.20;66.04;99906.91;10478885;28;20044;-53
2020/12/19 06:29:42;;;;;;;24.67;10.23;;;;;;;1.15;65.82;99909.66;10502175;28;20556;-54
2020/12/19 06:34:43;;;;;;;16.75;7.20;;;;;;;1.15;65.84;99924.38;10501731;28;20485;-54
2020/12/19 06:40:10;;;;;;;14.13;7.82;;;;;;;1.13;65.94;99915.81;10499551;28;20040;-54
2020/12/19 06:45:23;;;;;;;15.13;7.00;;;;;;;1.11;66.22;99920.25;10502069;28;20112;-53
2020/12/19 06:50:46;;;;;;;18.00;5.87;;;;;;;0.98;65.94;99925.06;10503114;28;20058;-55
2020/12/19 06:55:48;;;;;;;11.23;5.30;;;;;;;0.93;66.39;99913.25;10498870;28;20355;-55
2020/12/19 07:00:50;;;;;;;11.30;4.75;;;;;;;0.90;66.31;99946.13;10500506;28;20044;-54
2020/12/19 07:06:10;;;;;;;13.40;6.75;;;;;;;0.87;66.63;99935.88;10500230;28;20519;-55
2020/12/19 07:11:21;;;;;;;11.25;4.78;;;;;;;0.91;66.98;99945.19;10495621;28;20140;-55
2020/12/19 07:16:44;;;;;;;15.90;7.25;;;;;;;0.95;66.49;99922.63;10459457;28;20060;-55
2020/12/19 07:21:46;;;;;;;16.30;7.63;;;;;;;1.04;66.83;99911.03;10457893;28;20630;-53
2020/12/19 07:26:51;;;;;;;14.50;5.90;;;;;;;1.08;66.46;99917.78;10494807;28;20488;-54
2020/12/19 07:31:54;;;;;;;13.88;6.40;;;;;;;1.14;66.84;99912.34;10497488;28;20040;-56
2020/12/19 07:36:56;;;;;;;13.85;6.50;;;;;;;1.24;67.11;99917.97;10499370;28;20049;-55
2020/12/19 07:42:05;;;;;;;17.38;7.22;;;;;;;1.25;66.95;99912.69;10498385;28;20393;-55
2020/12/19 07:47:08;;;;;;;13.77;6.20;;;;;;;1.28;66.39;99915.16;10498712;28;20063;-53
2020/12/19 07:52:18;;;;;;;15.45;6.97;;;;;;;1.29;66.54;99931.53;10499242;28;20049;-53
2020/12/19 07:57:21;;;;;;;7.47;3.95;;;;;;;1.25;66.75;99917.03;10499918;28;20398;-53
2020/12/19 08:02:23;;;;;;;13.50;6.40;;;;;;;1.27;67.01;99923.00;10498647;28;20491;-54
2020/12/19 08:07:26;;;;;;;17.00;6.90;;;;;;;1.31;67.29;99930.56;10496970;28;20330;-53
2020/12/19 08:12:29;;;;;;;18.70;6.85;;;;;;;1.39;67.25;99922.47;10498133;28;20048;-53
2020/12/19 08:17:36;;;;;;;19.20;8.90;;;;;;;1.49;67.07;99925.50;10497947;28;20040;-54
2020/12/19 08:22:39;;;;;;;15.90;8.02;;;;;;;1.60;67.55;99920.66;10495815;28;20368;-54
2020/12/19 08:27:51;;;;;;;15.77;7.32;;;;;;;1.69;67.18;99920.25;10497259;28;20056;-55
2020/12/19 08:32:56;;;;;;;16.58;7.28;;;;;;;1.73;67.00;99927.00;10526537;28;20051;-53
2020/12/19 08:38:06;;;;;;;16.98;6.00;;;;;;;1.74;67.56;99933.84;10530767;28;20080;-56
2020/12/19 08:43:10;;;;;;;14.55;5.85;;;;;;;1.73;67.32;99939.94;10499263;28;20044;-54
2020/12/19 08:48:20;;;;;;;17.30;7.20;;;;;;;1.77;67.42;99935.47;10497634;28;20040;-52
2020/12/19 08:53:23;;;;;;;11.13;5.40;;;;;;;1.80;67.26;99933.56;10497368;28;20041;-55
2020/12/19 08:58:27;;;;;;;16.92;6.72;;;;;;;1.77;67.16;99943.25;10496591;28;20067;-56
2020/12/19 09:03:30;;;;;;;18.38;7.10;;;;;;;1.83;68.00;99936.03;10505848;28;20044;-54
2020/12/19 09:08:33;;;;;;;;;;;;;;;1.96;68.53;99938.06;10504932;28;20139;-54
2020/12/19 09:13:37;;;;;;;14.38;7.43;;;;;;;2.02;68.88;99933.41;10504640;28;19924;-54
2020/12/19 09:18:39;;;;;;;13.55;6.85;;;;;;;2.00;68.81;99935.25;10504472;28;20113;-53
2020/12/19 09:23:41;;;;;;;16.90;7.97;;;;;;;1.97;69.08;99937.13;10503177;28;20048;-54
2020/12/19 09:28:43;;;;;;;14.70;7.03;;;;;;;2.03;69.73;99940.31;10504645;28;20060;-55
2020/12/19 09:33:45;;;;;;;13.70;7.13;;;;;;;2.04;69.62;99935.97;10540339;28;20105;-55
2020/12/19 09:38:46;;;;;;;17.73;7.95;;;;;;;2.02;69.73;99943.78;10530107;28;20101;-59
2020/12/19 09:43:49;;;;;;;17.15;7.60;;;;;;;2.01;69.77;99936.94;10503918;28;20064;-55
2020/12/19 09:48:51;;;;;;;15.73;7.90;;;;;;;1.99;69.91;99924.94;10506753;28;20405;-57
2020/12/19 09:53:52;;;;;;;16.17;8.13;;;;;;;1.95;69.82;99923.41;10502556;28;20048;-53
2020/12/19 09:58:55;;;;;;;17.25;8.80;;;;;;;1.99;69.65;99919.75;10503199;28;20198;-55
2020/12/19 10:03:57;;;;;;;19.25;8.70;;;;;;;2.10;69.90;99920.13;10503267;28;20056;-54
2020/12/19 10:08:58;;;;;;;13.95;6.97;;;;;;;2.17;69.74;99925.84;10503502;28;20053;-56
2020/12/19 10:14:01;;;;;;;18.92;8.32;;;;;;;2.10;69.88;99920.13;10503690;28;20052;-55
2020/12/19 10:19:02;;;;;;;18.05;8.25;;;;;;;1.99;70.50;99918.00;10503684;28;20048;-54
2020/12/19 10:24:04;;;;;;;12.85;6.57;;;;;;;1.99;70.26;99911.97;10501702;28;20048;-54
2020/12/19 10:29:07;;;;;;;13.43;5.72;;;;;;;2.01;70.96;99907.56;10502189;28;20547;-55
2020/12/19 10:34:09;;;;;;;12.90;6.03;;;;;;;2.03;70.48;99897.94;10540717;28;20048;-54
2020/12/19 10:39:10;;;;;;;12.93;5.20;;;;;;;2.03;70.39;99903.13;10525996;28;20055;-53
2020/12/19 10:44:13;;;;;;;16.23;7.13;;;;;;;1.92;70.21;99900.22;10501545;28;20048;-54
2020/12/19 10:49:15;;;;;;;15.48;7.95;;;;;;;1.98;70.82;99910.31;10500899;28;20493;-56
2020/12/19 10:54:16;;;;;;;13.82;5.30;;;;;;;2.10;70.36;99917.53;10502247;28;20055;-54
2020/12/19 10:59:19;;;;;;;13.93;6.00;;;;;;;1.95;69.88;99916.47;10500510;28;20072;-56
2020/12/19 11:04:20;;;;;;;13.02;6.50;;;;;;;2.01;70.49;99923.13;10500259;28;20469;-54
2020/12/19 11:09:22;;;;;;;13.70;6.45;;;;;;;1.89;70.47;99931.47;10500500;28;20417;-55
2020/12/19 11:14:25;;;;;;;11.57;5.03;;;;;;;1.88;70.14;99934.97;10500296;28;20070;-62
2020/12/19 11:19:27;;;;;;;16.58;6.95;;;;;;;1.77;70.16;99919.91;10499721;28;20040;-55
2020/12/19 11:24:29;;;;;;;15.23;7.00;;;;;;;1.71;70.54;99923.63;10499066;28;20048;-56
2020/12/19 11:29:31;;;;;;;17.10;6.60;;;;;;;1.66;70.28;99914.34;10498445;28;20101;-55
2020/12/19 11:34:34;;;;;;;16.85;6.90;;;;;;;1.67;70.28;99921.25;10498549;28;20059;-55
2020/12/19 11:39:35;;;;;;;14.10;6.57;;;;;;;1.69;70.28;99922.84;10498248;28;20040;-57
2020/12/19 11:44:38;;;;;;;13.77;6.85;;;;;;;1.66;70.13;99933.34;10499785;28;20044;-56
2020/12/19 11:49:39;;;;;;;14.85;7.03;;;;;;;1.56;70.36;99927.72;10498019;28;20060;-54
2020/12/19 11:54:41;;;;;;;11.05;5.68;;;;;;;1.57;69.88;99926.84;10498155;28;20056;-54
2020/12/19 11:59:43;;;;;;;14.13;8.02;;;;;;;1.54;69.88;99923.53;10498159;28;20057;-56
2020/12/19 12:04:45;;;;;;;16.83;7.80;;;;;;;1.51;70.45;99926.25;10499026;28;20056;-56
2020/12/19 12:09:47;;;;;;;19.70;8.27;;;;;;;1.57;70.21;99931.16;10497832;28;20048;-53
2020/12/19 12:14:49;;;;;;;12.95;6.40;;;;;;;1.64;70.55;99932.59;10495385;28;20066;-54
2020/12/19 12:19:51;;;;;;;16.30;6.90;;;;;;;1.63;70.38;99920.50;10496100;28;20429;-56
2020/12/19 12:24:53;;;;;;;15.25;7.47;;;;;;;1.59;70.32;99914.63;10495113;28;20059;-56
2020/12/19 12:29:55;;;;;;;20.63;7.97;;;;;;;1.68;70.25;99933.28;10497078;28;20048;-56
2020/12/19 12:34:57;;;;;;;17.60;7.15;;;;;;;1.79;69.99;99931.06;10501032;28;20048;-54
2020/12/19 12:39:58;;;;;;;18.17;8.20;;;;;;;1.81;69.96;99932.66;10506644;28;20063;-55
2020/12/19 12:45:01;;;;;;;19.83;9.82;;;;;;;1.79;69.84;99931.91;10506141;28;20056;-54
2020/12/19 12:50:03;;;;;;;17.30;8.27;;;;;;;1.76;69.65;99947.59;10505836;28;20056;-56
2020/12/19 12:55:05;;;;;;;16.42;6.63;;;;;;;1.77;69.70;99945.84;10508046;28;20492;-55
2020/12/19 13:00:07;;;;;;;14.52;7.30;;;;;;;1.81;69.86;99950.78;10506625;28;20044;-53
2020/12/19 13:05:09;;;;;;;14.73;5.55;;;;;;;1.80;69.92;99964.66;10505285;28;20056;-57
2020/12/19 13:10:11;;;;;;;18.30;7.15;;;;;;;1.72;69.65;99960.72;10504706;28;20049;-54
2020/12/19 13:15:13;;;;;;;18.00;9.15;;;;;;;1.65;69.71;99961.94;10505299;28;20044;-55
2020/12/19 13:20:15;;;;;;;15.82;7.57;;;;;;;1.63;69.73;99967.16;10504851;28;20381;-54
2020/12/19 13:25:16;;;;;;;15.15;7.43;;;;;;;1.66;69.94;99961.84;10488503;28;20059;-55
2020/12/19 13:30:19;;;;;;;18.13;7.68;;;;;;;1.68;69.91;99970.41;10503971;28;20059;-53
2020/12/19 13:35:21;;;;;;;23.48;10.98;;;;;;;1.67;69.32;99968.72;10501727;28;20510;-55
2020/12/19 13:40:23;;;;;;;20.63;10.95;;;;;;;1.64;69.48;99962.84;10500807;28;20040;-54
2020/12/19 13:45:28;;;;;;;22.83;10.35;;;;;;;1.61;69.32;99969.00;10501581;28;20087;-54
2020/12/19 13:50:30;;;;;;;22.80;10.88;;;;;;;1.58;69.63;99974.31;10502990;28;20113;-56
2020/12/19 13:55:31;;;;;;;15.70;6.70;;;;;;;1.55;69.21;99974.44;10502460;28;20060;-56
2020/12/19 14:00:34;;;;;;;15.77;7.35;;;;;;;1.50;69.22;99977.22;10504872;28;20090;-54
2020/12/19 14:05:35;;;;;;;17.75;9.48;;;;;;;1.55;69.41;99977.03;10489007;28;20428;-54
2020/12/19 14:10:37;;;;;;;21.25;11.07;;;;;;;1.61;69.72;99981.97;10502276;28;20056;-55
2020/12/19 14:15:40;;;;;;;25.42;14.38;;;;;;;1.66;69.07;99979.16;10502700;28;20052;-55
2020/12/19 14:20:42;;;;;;;16.73;9.17;;;;;;;1.75;69.27;99995.13;10504935;28;20044;-54
2020/12/19 14:25:44;;;;;;;20.55;10.57;;;;;;;1.68;69.01;99996.31;10502651;28;20130;-55
2020/12/19 14:30:47;;;;;;;22.45;9.80;;;;;;;1.66;68.89;99992.94;10500511;28;20477;-53
2020/12/19 14:35:48;;;;;;;17.17;8.68;;;;;;;1.65;68.92;99998.22;10482726;28;20055;-55
2020/12/19 14:40:50;;;;;;;18.05;10.07;;;;;;;1.63;68.68;99990.47;10488707;28;20056;-55
2020/12/19 14:45:52;;;;;;;16.88;8.40;;;;;;;1.57;69.12;99983.84;10498352;28;20056;-55
2020/12/19 14:50:54;;;;;;;16.88;8.25;;;;;;;1.63;69.21;100003.44;10498510;28;20040;-53
2020/12/19 14:55:56;;;;;;;20.20;9.73;;;;;;;1.56;69.00;99986.50;10498600;28;20064;-55
2020/12/19 15:00:58;;;;;;;21.20;9.82;;;;;;;1.55;69.29;100000.38;10485857;28;20048;-55
2020/12/19 15:06:03;;;;;;;19.17;8.75;;;;;;;1.63;69.57;100006.03;10458241;28;20087;-54
2020/12/19 15:11:05;;;;;;;15.35;7.13;;;;;;;1.71;69.37;100006.56;10473968;28;20054;-57
2020/12/19 15:16:08;;;;;;;19.45;7.90;;;;;;;1.69;69.30;100012.69;10500595;28;20386;-54
2020/12/19 15:21:10;;;;;;;19.25;8.50;;;;;;;1.65;69.19;100012.00;10499432;28;20036;-54
2020/12/19 15:26:12;;;;;;;18.52;8.27;;;;;;;1.68;69.08;100011.03;10499823;28;20452;-54
2020/12/19 15:31:14;;;;;;;18.13;8.20;;;;;;;1.64;68.68;100007.72;10513408;28;20056;-55
2020/12/19 15:36:16;;;;;;;20.13;8.47;;;;;;;1.63;68.68;100013.81;10540857;28;20120;-54
2020/12/19 15:41:18;;;;;;;16.50;7.03;;;;;;;1.67;68.97;100012.78;10504749;28;20381;-55
2020/12/19 15:46:20;;;;;;;21.83;7.90;;;;;;;1.65;68.46;100014.59;10498962;28;20052;-54
2020/12/19 15:51:22;;;;;;;12.52;6.70;;;;;;;1.57;68.54;100025.31;10498363;28;20056;-54
2020/12/19 15:56:23;;;;;;;18.50;9.18;;;;;;;1.44;68.69;100013.75;10498041;28;20424;-54
2020/12/19 16:01:26;;;;;;;18.65;8.27;;;;;;;1.46;68.52;100008.53;10498359;28;20040;-54
2020/12/19 16:06:28;;;;;;;19.92;8.05;;;;;;;1.45;68.56;100006.81;10497333;28;20052;-54
2020/12/19 16:11:29;;;;;;;17.92;7.95;;;;;;;1.58;68.90;100031.31;10496112;28;20040;-53
2020/12/19 16:16:32;;;;;;;17.95;7.32;;;;;;;1.74;68.20;100037.50;10497007;28;20131;-55
2020/12/19 16:21:34;;;;;;;20.83;7.43;;;;;;;1.68;68.29;100021.41;10497261;28;20101;-53
2020/12/19 16:26:36;;;;;;;18.95;7.68;;;;;;;1.64;68.13;100030.22;10496095;28;20474;-53
2020/12/19 16:31:41;;;;;;;18.25;8.77;;;;;;;1.61;67.60;100026.84;10514875;28;20094;-54
2020/12/19 16:36:43;;;;;;;21.15;8.70;;;;;;;1.65;67.89;100026.72;10538500;28;20067;-54
2020/12/19 16:41:46;;;;;;;18.65;8.88;;;;;;;1.60;68.21;100030.34;10500474;28;20056;-54
2020/12/19 16:46:48;;;;;;;20.63;9.13;;;;;;;1.57;68.31;100032.22;10496520;28;20056;-54
2020/12/19 16:51:50;;;;;;;21.10;9.30;;;;;;;1.49;68.20;100027.38;10496960;28;20499;-53
2020/12/19 16:56:52;;;;;;;19.80;9.25;;;;;;;1.54;68.55;100029.75;10496843;28;20071;-55
2020/12/19 17:01:54;;;;;;;17.77;8.13;;;;;;;1.57;68.04;100038.25;10497666;28;20079;-53
2020/12/19 17:06:56;;;;;;;23.70;10.73;;;;;;;1.45;67.93;100024.97;10496898;28;20059;-54
2020/12/19 17:11:58;;;;;;;21.67;9.27;;;;;;;1.51;68.58;100017.78;10499307;28;20440;-53
2020/12/19 17:17:00;;;;;;;21.50;9.65;;;;;;;1.52;68.08;100018.63;10497198;28;20113;-55
2020/12/19 17:22:05;;;;;;;20.90;9.55;;;;;;;1.50;68.45;100017.84;10501482;28;20052;-56
2020/12/19 17:27:07;;;;;;;16.85;7.47;;;;;;;1.53;68.67;100023.72;10506707;28;20453;-61
2020/12/19 17:32:10;;;;;;;20.63;10.20;;;;;;;1.52;68.10;100031.59;10502729;28;20392;-54
2020/12/19 17:37:12;;;;;;;22.20;8.95;;;;;;;1.51;68.28;100035.06;10502428;28;20530;-53
2020/12/19 17:42:15;;;;;;;23.63;10.32;;;;;;;1.46;67.97;100027.50;10504303;28;20044;-54
2020/12/19 17:47:17;;;;;;;26.33;11.70;;;;;;;1.47;68.27;100025.75;10501350;28;20040;-55
2020/12/19 17:52:19;;;;;;;24.80;12.00;;;;;;;1.45;68.42;100027.56;10503943;28;20102;-53
2020/12/19 17:57:20;;;;;;;24.42;10.70;;;;;;;1.51;68.70;100029.88;10503283;28;20072;-55
2020/12/19 18:02:23;;;;;;;22.38;9.65;;;;;;;1.53;67.72;100041.88;10502009;28;20045;-54
2020/12/19 18:07:25;;;;;;;19.93;8.73;;;;;;;1.46;68.45;100047.38;10503431;28;20048;-56
2020/12/19 18:12:27;;;;;;;24.88;11.02;;;;;;;1.51;68.45;100055.78;10502823;28;20048;-53
2020/12/19 18:17:30;;;;;;;22.63;9.70;;;;;;;1.56;68.19;100054.69;10502243;28;20106;-55
2020/12/19 18:22:31;;;;;;;22.40;9.98;;;;;;;1.56;67.85;100046.09;10507944;28;20143;-53
2020/12/19 18:27:33;;;;;;;26.77;10.30;;;;;;;1.57;68.33;100052.94;10503412;28;20114;-55
2020/12/19 18:32:36;;;;;;;24.15;10.50;;;;;;;1.64;68.21;100067.34;10501165;28;20063;-54
2020/12/19 18:37:38;;;;;;;23.00;9.90;;;;;;;1.63;67.72;100075.16;10501610;28;20063;-54
2020/12/19 18:42:39;;;;;;;24.98;11.23;;;;;;;1.55;68.15;100073.75;10499770;28;20614;-55
2020/12/19 18:47:45;;;;;;;24.02;10.48;;;;;;;1.59;68.25;100084.81;10499769;28;20563;-54
2020/12/19 18:52:47;;;;;;;22.65;9.13;;;;;;;1.70;68.12;100085.22;10501086;28;20044;-53
2020/12/19 18:57:49;;;;;;;22.23;10.40;;;;;;;1.78;68.02;100075.34;10498065;28;20147;-53
2020/12/19 19:02:51;;;;;;;23.73;8.82;;;;;;;1.80;67.90;100070.94;10498358;28;20068;-53
2020/12/19 19:07:53;;;;;;;19.73;9.82;;;;;;;1.79;67.78;100079.66;10500484;28;20052;-54
2020/12/19 19:12:55;;;;;;;22.05;9.00;;;;;;;1.77;67.69;100078.84;10499267;28;20040;-53
2020/12/19 19:17:58;;;;;;;19.63;9.02;;;;;;;1.81;67.73;100079.56;10498514;28;20044;-55
2020/12/19 19:23:00;;;;;;;28.00;11.25;;;;;;;1.81;67.67;100075.22;10498561;28;20491;-53
2020/12/19 19:28:02;;;;;;;25.88;12.68;;;;;;;1.75;68.08;100070.28;10498148;28;20063;-54
2020/12/19 19:33:04;;;;;;;30.77;9.90;;;;;;;1.69;67.48;100064.53;10499180;28;20048;-54
2020/12/19 19:38:07;;;;;;;25.70;10.40;;;;;;;1.66;67.52;100064.66;10498507;28;20071;-57
2020/12/19 19:43:08;;;;;;;22.33;10.60;;;;;;;1.63;67.71;100067.38;10498466;28;20579;-53
2020/12/19 19:48:11;;;;;;;25.02;11.10;;;;;;;1.64;67.32;100067.34;10501483;28;20151;-54
2020/12/19 19:53:13;;;;;;;23.95;9.75;;;;;;;1.65;67.33;100069.00;10499146;28;20098;-53
2020/12/19 19:58:14;;;;;;;25.67;11.27;;;;;;;1.72;67.63;100074.78;10497335;28;20397;-55
2020/12/19 20:03:17;;;;;;;27.60;11.23;;;;;;;1.77;67.13;100078.84;10498543;28;20058;-56
2020/12/19 20:08:18;;;;;;;29.02;10.02;;;;;;;1.82;67.32;100081.25;10498133;28;20056;-55
2020/12/19 20:13:20;;;;;;;27.50;10.75;;;;;;;1.76;67.59;100091.91;10498206;28;20129;-55
2020/12/19 20:18:23;;;;;;;25.27;11.00;;;;;;;1.79;67.21;100082.25;10498401;28;20052;-53
2020/12/19 20:23:26;;;;;;;24.48;10.73;;;;;;;1.82;67.59;100084.69;10498419;28;20543;-53
2020/12/19 20:28:27;;;;;;;25.02;11.40;;;;;;;1.86;67.42;100082.81;10497596;28;20057;-55
2020/12/19 20:33:30;;;;;;;27.23;11.82;;;;;;;1.84;67.02;100080.28;10497285;28;20056;-53
2020/12/19 20:38:33;;;;;;;31.60;11.48;;;;;;;1.78;67.48;100084.88;10496084;28;20367;-53
2020/12/19 20:43:34;;;;;;;32.73;13.00;;;;;;;1.58;67.23;100077.97;10495075;28;20040;-54
2020/12/19 20:48:37;;;;;;;28.80;12.15;;;;;;;1.52;67.24;100078.22;10496999;28;20056;-53
2020/12/19 20:53:38;;;;;;;28.58;10.13;;;;;;;1.37;67.61;100079.69;10498437;28;20044;-56
2020/12/19 20:58:40;;;;;;;29.63;11.52;;;;;;;1.31;67.88;100073.00;10504164;28;20060;-56
2020/12/19 21:03:42;;;;;;;35.97;15.60;;;;;;;1.20;67.86;100083.00;10505039;28;20372;-53
2020/12/19 21:08:44;;;;;;;25.65;9.82;;;;;;;1.18;68.23;100079.59;10504792;28;20044;-55
2020/12/19 21:13:46;;;;;;;31.55;11.90;;;;;;;1.10;68.18;100084.25;10504627;28;20052;-54
2020/12/19 21:18:48;;;;;;;25.83;10.25;;;;;;;1.00;68.20;100086.38;10504858;28;20106;-55
2020/12/19 21:23:50;;;;;;;20.55;7.78;;;;;;;0.95;67.95;100098.63;10502725;28;20078;-53
2020/12/19 21:28:52;;;;;;;30.20;11.45;;;;;;;0.91;68.13;100090.16;10502126;28;20056;-55
2020/12/19 21:33:56;;;;;;;35.22;13.95;;;;;;;0.84;68.26;100096.47;10542470;28;20101;-57
2020/12/19 21:38:57;;;;;;;;;;;;;;;0.75;68.18;100090.81;10531485;28;20048;-56
2020/12/19 21:43:59;;;;;;;27.17;9.80;;;;;;;0.64;68.68;100088.63;10503395;28;20361;-53
2020/12/19 21:49:01;;;;;;;35.58;12.23;;;;;;;0.63;69.08;100086.97;10502762;28;20464;-55
2020/12/19 21:54:03;;;;;;;20.45;7.55;;;;;;;0.69;68.59;100102.25;10501687;28;20044;-53
2020/12/19 21:59:05;;;;;;;29.15;11.75;;;;;;;0.66;68.49;100102.38;10500289;28;20061;-53
2020/12/19 22:04:08;;;;;;;36.35;14.02;;;;;;;0.65;69.22;100106.69;10501666;28;20056;-55
2020/12/19 22:09:09;;;;;;;27.88;10.25;;;;;;;0.66;68.69;100104.94;10503338;28;20059;-56
2020/12/19 22:14:11;;;;;;;27.25;11.35;;;;;;;0.72;69.18;100106.47;10501814;28;20048;-55
2020/12/19 22:19:13;;;;;;;28.83;11.13;;;;;;;0.76;68.90;100103.69;10501601;28;20182;-55
2020/12/19 22:24:15;;;;;;;29.30;10.52;;;;;;;0.82;68.81;100106.03;10501574;28;20511;-54
2020/12/19 22:29:18;;;;;;;33.50;13.90;;;;;;;0.90;68.82;100106.59;10502367;28;20435;-53
2020/12/19 22:34:21;;;;;;;34.30;12.77;;;;;;;0.96;68.27;100100.34;10546127;28;20051;-55
2020/12/19 22:39:23;;;;;;;29.67;12.20;;;;;;;0.94;68.20;100106.47;10527596;28;20052;-53
2020/12/19 22:44:24;;;;;;;33.95;12.02;;;;;;;0.89;68.61;100101.47;10500583;28;20038;-55
2020/12/19 22:49:27;;;;;;;33.35;12.10;;;;;;;0.91;68.32;100110.03;10501066;28;20058;-53
2020/12/19 22:54:28;;;;;;;36.08;14.40;;;;;;;0.95;68.80;100116.75;10502185;28;20051;-53
2020/12/19 22:59:30;;;;;;;33.38;13.18;;;;;;;0.99;68.75;100110.56;10502259;28;20094;-54
2020/12/19 23:04:33;;;;;;;35.60;13.30;;;;;;;0.97;68.55;100127.91;10499203;28;20055;-53
2020/12/19 23:09:35;;;;;;;33.63;14.10;;;;;;;1.01;69.02;100124.28;10497450;28;20114;-54
2020/12/19 23:14:36;;;;;;;35.72;13.88;;;;;;;1.06;68.77;100132.72;10499802;28;20044;-55
2020/12/19 23:19:39;;;;;;;42.05;14.15;;;;;;;1.13;68.34;100143.69;10499981;28;20522;-55